Time;durP1;ratioP1;P1;durP2;ratioP2;P2;SDS_P1;SDS_P2;PMS_P1;PMS_P2;Temp;Humidity;BMP_temperature;BMP_pressure;BME280_temperature;BME280_humidity;BME280_pressure;Samples;Min_cycle;Max_cycle;Signal;HPM_P1;HPM_P2
2023/08/09 00:01:26;;;;;;;6.18;2.67;;;;;;;17.90;100.00;100226.25;8284470;28;20111;-61
2023/08/09 00:05:27;;;;;;;3.05;1.92;;;;;;;17.97;100.00;100234.53;8288513;28;20041;-62
2023/08/09 00:09:30;;;;;;;4.50;1.77;;;;;;;17.97;100.00;100226.31;8286242;28;20045;-61
2023/08/09 00:13:31;;;;;;;5.32;1.90;;;;;;;17.99;100.00;100236.00;8285190;28;20034;-62
2023/08/09 00:17:31;;;;;;;2.60;1.80;;;;;;;17.97;100.00;100235.38;8288528;28;20041;-61
2023/08/09 00:21:31;;;;;;;8.23;2.22;;;;;;;17.98;100.00;100228.88;8285811;28;20117;-61
2023/08/09 00:25:33;;;;;;;3.60;1.88;;;;;;;18.01;100.00;100233.09;8287240;28;20050;-61
2023/08/09 00:29:34;;;;;;;2.05;1.77;;;;;;;18.01;100.00;100225.72;8284406;28;20037;-62
2023/08/09 00:33:34;;;;;;;2.80;1.55;;;;;;;17.98;100.00;100228.88;8285444;28;20083;-61
2023/08/09 00:37:35;;;;;;;4.25;1.88;;;;;;;17.85;100.00;100217.78;8283658;28;20038;-61
2023/08/09 00:41:35;;;;;;;3.80;2.00;;;;;;;17.79;100.00;100215.84;8284958;28;20128;-63
2023/08/09 00:45:41;;;;;;;6.35;2.35;;;;;;;17.73;100.00;100211.13;8285901;28;20046;-62
2023/08/09 00:49:44;;;;;;;5.40;2.33;;;;;;;17.73;100.00;100208.41;8284933;28;20336;-61
2023/08/09 00:53:44;;;;;;;5.68;2.80;;;;;;;17.74;100.00;100210.09;8285995;28;20577;-61
2023/08/09 00:57:47;;;;;;;3.90;2.72;;;;;;;17.73;100.00;100213.00;8284654;28;20455;-61
2023/08/09 01:01:48;;;;;;;5.47;3.38;;;;;;;17.71;100.00;100206.91;8283159;28;20041;-62
2023/08/09 01:06:02;;;;;;;6.22;3.25;;;;;;;17.76;100.00;100213.50;8280443;28;20061;-61
2023/08/09 01:10:15;;;;;;;5.35;2.92;;;;;;;17.78;100.00;100205.91;8282098;28;20042;-62
2023/08/09 01:14:17;;;;;;;8.48;2.90;;;;;;;17.77;100.00;100220.63;8285532;28;20065;-60
2023/08/09 01:18:20;;;;;;;5.30;3.17;;;;;;;17.78;100.00;100226.97;8283215;28;20033;-60
2023/08/09 01:22:29;;;;;;;5.90;3.13;;;;;;;17.80;100.00;100231.19;8281843;28;20042;-61
2023/08/09 01:26:29;;;;;;;3.55;2.90;;;;;;;17.76;100.00;100224.44;8276791;28;20041;-60
2023/08/09 01:30:30;;;;;;;7.25;3.22;;;;;;;17.80;100.00;100231.19;8285738;28;20034;-60
2023/08/09 01:34:31;;;;;;;5.95;3.03;;;;;;;17.84;100.00;100231.66;8281919;28;20037;-60
2023/08/09 01:38:37;;;;;;;6.30;3.60;;;;;;;17.82;100.00;100220.91;8284261;28;20057;-60
2023/08/09 01:42:39;;;;;;;7.88;3.35;;;;;;;17.87;100.00;100226.63;8281970;28;20486;-60
2023/08/09 01:46:41;;;;;;;5.68;2.95;;;;;;;17.86;100.00;100224.09;8283989;28;20038;-61
2023/08/09 01:50:43;;;;;;;5.30;3.25;;;;;;;17.89;100.00;100223.69;8283425;28;20041;-60
2023/08/09 01:54:43;;;;;;;6.13;3.53;;;;;;;17.89;100.00;100224.56;8283962;28;20073;-60
2023/08/09 01:58:44;;;;;;;4.57;3.25;;;;;;;17.84;100.00;100220.72;8282171;28;20386;-60
2023/08/09 02:02:45;;;;;;;4.90;3.30;;;;;;;17.83;100.00;100219.88;8279139;28;20124;-60
2023/08/09 02:06:45;;;;;;;6.57;2.88;;;;;;;17.84;100.00;100231.66;8290490;28;20456;-60
2023/08/09 02:10:47;;;;;;;6.38;3.20;;;;;;;17.87;100.00;100220.34;8290554;28;20053;-61
2023/08/09 02:14:48;;;;;;;4.95;2.33;;;;;;;17.85;100.00;100223.25;8288100;28;20217;-61
2023/08/09 02:18:48;;;;;;;3.42;2.40;;;;;;;17.87;100.00;100226.63;8287059;28;20488;-62
2023/08/09 02:22:49;;;;;;;2.65;2.00;;;;;;;17.82;100.00;100228.25;8290319;28;20046;-60
2023/08/09 02:26:49;;;;;;;3.15;2.20;;;;;;;17.80;100.00;100236.66;8290354;28;20037;-60
2023/08/09 02:30:50;;;;;;;4.00;1.83;;;;;;;17.79;100.00;100245.91;8290059;28;20514;-60
2023/08/09 02:34:52;;;;;;;1.38;0.98;;;;;;;17.21;100.00;100251.47;8289473;28;20188;-60
2023/08/09 02:38:52;;;;;;;2.25;1.27;;;;;;;16.93;100.00;100253.16;8289375;28;20041;-61
2023/08/09 02:42:53;;;;;;;1.80;1.20;;;;;;;16.64;100.00;100269.50;8290087;28;20127;-60
2023/08/09 02:46:53;;;;;;;2.38;1.58;;;;;;;16.59;100.00;100258.31;8289821;28;20042;-61
2023/08/09 02:50:54;;;;;;;2.45;1.90;;;;;;;16.52;100.00;100270.97;8289856;28;20134;-60
2023/08/09 02:54:54;;;;;;;4.95;2.47;;;;;;;16.48;100.00;100275.13;8289771;28;20049;-60
2023/08/09 02:58:56;;;;;;;3.05;2.58;;;;;;;16.40;100.00;100283.31;8295196;28;20121;-60
2023/08/09 03:02:58;;;;;;;4.60;3.22;;;;;;;16.36;100.00;100295.66;8295634;28;20038;-61
2023/08/09 03:06:59;;;;;;;8.38;3.47;;;;;;;16.31;100.00;100295.38;8295303;28;20049;-61
2023/08/09 03:10:59;;;;;;;4.10;3.42;;;;;;;16.28;100.00;100295.72;8295582;28;20042;-61
2023/08/09 03:15:01;;;;;;;3.67;3.03;;;;;;;16.27;100.00;100305.78;8296339;28;20415;-61
2023/08/09 03:19:03;;;;;;;7.15;3.83;;;;;;;16.24;100.00;100306.16;8291938;28;20045;-61
2023/08/09 03:23:04;;;;;;;6.55;3.90;;;;;;;16.23;100.00;100320.81;8295500;28;20404;-61
2023/08/09 03:27:05;;;;;;;5.13;3.05;;;;;;;16.20;100.00;100323.91;8295315;28;20077;-60
2023/08/09 03:31:06;;;;;;;4.32;3.15;;;;;;;16.22;100.00;100318.28;8295017;28;20042;-60
2023/08/09 03:35:10;;;;;;;;;;;;;;;16.22;100.00;100323.75;8295926;28;20049;-62
2023/08/09 03:39:12;;;;;;;6.95;4.60;;;;;;;16.24;100.00;100327.13;8294999;28;20014;-62
2023/08/09 03:43:13;;;;;;;5.22;3.92;;;;;;;16.24;100.00;100322.50;8294864;28;20080;-62
2023/08/09 03:47:13;;;;;;;4.82;4.32;;;;;;;16.26;100.00;100330.53;8294773;28;20042;-62
2023/08/09 03:51:15;;;;;;;6.20;3.72;;;;;;;16.23;100.00;100331.75;8294685;28;20038;-62
2023/08/09 03:55:16;;;;;;;5.20;4.28;;;;;;;16.26;100.00;100335.97;8294559;28;20060;-61
2023/08/09 03:59:17;;;;;;;6.82;4.00;;;;;;;16.27;100.00;100332.19;8294699;28;20104;-61
2023/08/09 04:03:18;;;;;;;7.97;4.85;;;;;;;16.29;100.00;100339.19;8293853;28;20038;-61
2023/08/09 04:07:19;;;;;;;6.13;3.47;;;;;;;16.25;100.00;100342.47;8292794;28;20042;-61
2023/08/09 04:11:19;;;;;;;8.07;4.72;;;;;;;16.20;100.00;100353.06;8293558;28;20113;-61
2023/08/09 04:15:21;;;;;;;5.20;4.13;;;;;;;16.28;100.00;100361.22;8294061;28;20088;-61
2023/08/09 04:19:24;;;;;;;5.13;3.95;;;;;;;16.28;100.00;100363.94;8293343;28;20038;-61
2023/08/09 04:23:25;;;;;;;6.38;4.70;;;;;;;16.33;100.00;100366.94;8292022;28;20123;-61
2023/08/09 04:27:26;;;;;;;5.90;3.88;;;;;;;16.25;100.00;100373.31;8293343;28;20042;-61
2023/08/09 04:31:27;;;;;;;5.72;4.57;;;;;;;16.37;100.00;100376.47;8292755;28;20034;-61
2023/08/09 04:35:28;;;;;;;4.88;4.25;;;;;;;16.38;100.00;100383.63;8293269;28;20065;-61
2023/08/09 04:39:29;;;;;;;5.90;3.60;;;;;;;16.33;100.00;100383.31;8274398;28;20099;-61
2023/08/09 04:43:30;;;;;;;4.53;3.08;;;;;;;16.26;100.00;100385.09;8292928;28;20042;-61
2023/08/09 04:47:30;;;;;;;4.82;3.35;;;;;;;16.19;100.00;100406.75;8289921;28;20061;-60
2023/08/09 04:51:31;;;;;;;5.72;3.67;;;;;;;16.25;100.00;100399.75;8282804;28;20034;-60
2023/08/09 04:55:32;;;;;;;3.45;2.83;;;;;;;16.23;100.00;100401.81;8292909;28;20040;-60
2023/08/09 04:59:32;;;;;;;7.20;3.65;;;;;;;16.31;100.00;100404.50;8285171;28;20034;-61
2023/08/09 05:03:32;;;;;;;4.88;3.40;;;;;;;16.42;100.00;100424.03;8287493;28;20050;-60
2023/08/09 05:07:34;;;;;;;4.95;3.05;;;;;;;16.20;100.00;100418.53;8291890;28;20037;-60
2023/08/09 05:11:34;;;;;;;3.90;3.50;;;;;;;16.12;100.00;100399.47;8291697;28;20040;-60
2023/08/09 05:15:35;;;;;;;4.80;3.33;;;;;;;16.41;100.00;100416.03;8290678;28;20120;-60
2023/08/09 05:19:35;;;;;;;7.20;2.75;;;;;;;16.53;100.00;100414.63;8285188;28;20061;-60
2023/08/09 05:23:36;;;;;;;3.58;2.30;;;;;;;16.48;100.00;100433.41;8286560;28;20049;-61
2023/08/09 05:27:37;;;;;;;3.20;2.55;;;;;;;16.63;100.00;100442.50;8287433;28;20034;-61
2023/08/09 05:31:38;;;;;;;4.55;2.47;;;;;;;16.64;100.00;100461.44;8284962;28;20033;-61
2023/08/09 05:35:38;;;;;;;5.38;2.95;;;;;;;16.64;100.00;100457.84;8286840;28;20117;-61
2023/08/09 05:39:39;;;;;;;4.57;2.58;;;;;;;16.79;100.00;100454.16;8274943;28;20060;-62
2023/08/09 05:43:39;;;;;;;5.18;3.25;;;;;;;16.96;100.00;100449.44;8270916;28;20038;-61
2023/08/09 05:47:40;;;;;;;3.30;2.70;;;;;;;17.01;100.00;100456.03;8283769;28;20045;-61
2023/08/09 05:51:40;;;;;;;2.78;2.22;;;;;;;17.05;100.00;100454.63;8286626;28;20038;-61
2023/08/09 05:55:41;;;;;;;5.72;2.90;;;;;;;17.21;100.00;100459.97;8283309;28;20042;-61
2023/08/09 05:59:41;;;;;;;3.80;2.80;;;;;;;17.35;100.00;100469.22;8288455;28;20060;-61
2023/08/09 06:03:42;;;;;;;2.97;2.50;;;;;;;17.35;100.00;100477.41;8289070;28;20048;-60
2023/08/09 06:07:42;;;;;;;5.97;2.22;;;;;;;17.27;100.00;100469.31;8289576;28;20041;-61
2023/08/09 06:11:43;;;;;;;2.47;2.28;;;;;;;17.32;100.00;100462.25;8288476;28;20492;-60
2023/08/09 06:15:43;;;;;;;5.70;3.35;;;;;;;17.45;100.00;100487.09;8287770;28;20034;-61
2023/08/09 06:19:43;;;;;;;7.85;3.53;;;;;;;17.40;100.00;100485.91;8286853;28;20061;-61
2023/08/09 06:23:44;;;;;;;5.20;3.63;;;;;;;17.43;100.00;100496.53;8288993;28;20038;-60
2023/08/09 06:27:44;;;;;;;8.18;4.55;;;;;;;17.39;100.00;100495.16;8289069;28;20038;-61
2023/08/09 06:31:45;;;;;;;5.57;3.90;;;;;;;17.42;100.00;100500.25;8290742;28;20084;-61
2023/08/09 06:35:46;;;;;;;4.35;3.88;;;;;;;17.34;100.00;100508.53;8295902;28;20033;-62
2023/08/09 06:39:46;;;;;;;6.95;4.43;;;;;;;17.33;100.00;100517.75;8295494;28;20034;-62
2023/08/09 06:43:47;;;;;;;10.20;4.53;;;;;;;17.29;100.00;100521.88;8295144;28;20041;-62
2023/08/09 06:47:47;;;;;;;11.00;5.03;;;;;;;17.59;100.00;100529.16;8294645;28;20045;-62
2023/08/09 06:51:48;;;;;;;4.40;3.92;;;;;;;17.99;100.00;100536.94;8290671;28;20045;-62
2023/08/09 06:55:49;;;;;;;9.68;4.82;;;;;;;18.06;100.00;100537.91;8295235;28;20464;-62
2023/08/09 06:59:51;;;;;;;6.10;4.05;;;;;;;18.25;100.00;100537.34;8293411;28;20104;-62
2023/08/09 07:03:53;;;;;;;6.03;4.47;;;;;;;18.32;100.00;100538.28;8294474;28;20050;-62
2023/08/09 07:07:54;;;;;;;5.78;3.80;;;;;;;18.84;100.00;100544.47;8294229;28;20042;-62
2023/08/09 07:11:55;;;;;;;8.13;4.15;;;;;;;19.61;96.83;100547.38;8294326;28;20034;-62
2023/08/09 07:15:55;;;;;;;4.10;3.67;;;;;;;19.32;94.55;100557.47;8294704;28;20037;-62
2023/08/09 07:19:56;;;;;;;4.68;3.80;;;;;;;18.96;95.07;100564.84;8293675;28;20042;-62
2023/08/09 07:23:56;;;;;;;4.65;3.65;;;;;;;18.66;98.92;100557.72;8294076;28;20077;-62
2023/08/09 07:27:57;;;;;;;5.75;3.80;;;;;;;18.68;99.65;100566.59;8293434;28;20432;-62
2023/08/09 07:31:58;;;;;;;4.72;4.20;;;;;;;18.52;100.00;100564.09;8293203;28;20547;-61
2023/08/09 07:35:58;;;;;;;4.93;3.97;;;;;;;18.60;98.38;100565.88;8293187;28;20096;-62
2023/08/09 07:39:59;;;;;;;7.57;4.78;;;;;;;18.54;96.84;100572.94;8292775;28;20065;-61
2023/08/09 07:43:59;;;;;;;6.25;4.47;;;;;;;19.12;96.51;100577.47;8284080;28;20046;-62
2023/08/09 07:48:00;;;;;;;6.65;5.03;;;;;;;19.45;94.33;100587.75;8288727;28;20120;-62
2023/08/09 07:52:00;;;;;;;7.60;4.47;;;;;;;19.06;89.13;100576.31;8292653;28;20046;-61
2023/08/09 07:56:01;;;;;;;6.43;4.80;;;;;;;19.42;92.09;100598.25;8293173;28;20447;-61
2023/08/09 08:00:07;;;;;;;6.25;4.13;;;;;;;20.22;85.53;100594.13;8291402;28;20046;-62
2023/08/09 08:04:16;;;;;;;5.35;3.30;;;;;;;20.52;79.61;100592.00;8292822;28;20038;-60
2023/08/09 08:08:18;;;;;;;4.88;4.03;;;;;;;20.38;83.00;100601.22;8291884;28;20507;-60
2023/08/09 08:12:21;;;;;;;5.90;4.13;;;;;;;20.35;82.34;100601.59;8292437;28;20069;-60
2023/08/09 08:16:22;;;;;;;9.20;5.25;;;;;;;20.18;82.13;100605.69;8292794;28;20495;-60
2023/08/09 08:20:23;;;;;;;7.13;5.40;;;;;;;19.80;83.83;100615.28;8291888;28;20551;-60
2023/08/09 08:24:24;;;;;;;5.70;4.68;;;;;;;20.19;81.73;100615.66;8292438;28;20056;-62
2023/08/09 08:28:24;;;;;;;6.43;4.75;;;;;;;20.92;80.35;100605.72;8291768;28;20034;-62
2023/08/09 08:32:24;;;;;;;5.45;4.03;;;;;;;20.44;80.79;100614.13;8290536;28;20455;-62
2023/08/09 08:36:25;;;;;;;6.40;4.30;;;;;;;21.01;80.37;100625.66;8292074;28;20121;-61
2023/08/09 08:40:26;;;;;;;8.27;4.60;;;;;;;21.12;78.52;100616.81;8291095;28;20045;-62
2023/08/09 08:44:26;;;;;;;6.65;5.22;;;;;;;20.55;78.30;100625.41;8291343;28;20049;-62
2023/08/09 08:48:27;;;;;;;8.13;5.60;;;;;;;20.03;80.26;100624.16;8290461;28;20464;-62
2023/08/09 08:52:29;;;;;;;8.02;4.75;;;;;;;20.43;80.33;100631.69;8291359;28;20463;-62
2023/08/09 08:56:30;;;;;;;9.68;5.03;;;;;;;21.55;78.52;100629.22;8291113;28;20065;-61
2023/08/09 09:00:31;;;;;;;5.88;4.40;;;;;;;21.85;78.23;100633.31;8290553;28;20586;-62
2023/08/09 09:04:31;;;;;;;4.75;3.90;;;;;;;21.67;77.25;100633.06;8290423;28;20050;-61
2023/08/09 09:08:40;;;;;;;4.68;3.28;;;;;;;21.76;72.69;100637.34;8289192;28;20403;-62
2023/08/09 09:12:41;;;;;;;3.80;3.38;;;;;;;21.22;73.38;100640.13;8290388;28;20068;-66
2023/08/09 09:16:43;;;;;;;5.60;3.92;;;;;;;20.95;75.02;100648.50;8290577;28;20262;-62
2023/08/09 09:20:43;;;;;;;4.00;3.15;;;;;;;21.22;74.06;100639.28;8289771;28;20393;-62
2023/08/09 09:24:44;;;;;;;4.28;3.20;;;;;;;21.90;72.90;100646.47;8290526;28;20041;-61
2023/08/09 09:28:46;;;;;;;4.13;3.28;;;;;;;22.11;71.21;100636.06;8286205;28;20044;-62
2023/08/09 09:37:17;;;;;;;6.28;3.40;;;;;;;21.84;70.49;100642.66;8338626;27;20827;-61
2023/08/09 09:41:17;;;;;;;3.05;2.63;;;;;;;22.90;67.43;100637.66;8302083;28;20095;-61
2023/08/09 09:45:22;;;;;;;3.50;2.88;;;;;;;22.57;68.67;100645.16;8301400;28;22174;-61
2023/08/09 09:49:23;;;;;;;2.90;2.63;;;;;;;22.90;68.03;100648.69;8299639;28;20041;-61
2023/08/09 09:53:24;;;;;;;3.15;2.85;;;;;;;23.97;68.98;100651.56;8301516;28;20038;-61
2023/08/09 09:57:24;;;;;;;3.25;2.42;;;;;;;25.37;59.08;100645.03;8331721;28;20368;-61
2023/08/09 10:01:30;;;;;;;3.47;2.78;;;;;;;25.88;60.79;100650.03;8331859;28;20037;-61
2023/08/09 10:05:36;;;;;;;3.10;2.55;;;;;;;26.22;58.65;100655.69;8328410;28;20033;-61
2023/08/09 10:09:36;;;;;;;5.00;2.58;;;;;;;26.64;56.98;100659.25;8331987;28;20559;-61
2023/08/09 10:13:39;;;;;;;4.30;2.47;;;;;;;26.59;54.01;100668.25;8332173;28;20425;-61
2023/08/09 10:17:43;;;;;;;4.25;2.42;;;;;;;27.32;51.60;100670.53;8333432;28;20045;-61
2023/08/09 10:21:43;;;;;;;5.13;2.60;;;;;;;27.81;51.14;100675.41;8326042;28;20133;-61
2023/08/09 10:25:46;;;;;;;4.05;2.47;;;;;;;28.72;53.01;100689.84;8305761;28;20046;-61
2023/08/09 10:29:56;;;;;;;3.92;2.20;;;;;;;29.53;49.18;100695.50;8330741;28;20045;-61
2023/08/09 10:34:13;;;;;;;2.85;2.33;;;;;;;28.61;51.18;100696.38;8331759;28;20203;-61
2023/08/09 10:38:18;;;;;;;2.60;1.80;;;;;;;29.32;50.93;100693.53;8331035;28;20053;-60
2023/08/09 10:42:19;;;;;;;4.50;2.15;;;;;;;28.70;48.92;100683.72;8332633;28;20049;-60
2023/08/09 10:46:24;;;;;;;1.80;1.60;;;;;;;29.81;47.03;100686.94;8323249;28;20121;-60
2023/08/09 10:50:31;;;;;;;2.80;1.90;;;;;;;29.43;47.03;100684.19;8308271;28;20040;-60
2023/08/09 10:54:31;;;;;;;5.30;1.95;;;;;;;29.26;47.95;100683.44;8284669;28;20471;-60
2023/08/09 10:58:32;;;;;;;7.90;2.38;;;;;;;28.19;49.03;100689.47;8305236;28;20045;-60
2023/08/09 11:02:32;;;;;;;4.38;1.77;;;;;;;26.32;51.32;100680.88;8308524;28;20137;-60
2023/08/09 11:06:36;;;;;;;3.85;2.13;;;;;;;27.17;52.45;100695.16;8310784;28;20509;-60
2023/08/09 11:10:39;;;;;;;3.00;1.67;;;;;;;26.68;51.28;100693.72;8307938;28;20042;-60
2023/08/09 11:14:40;;;;;;;3.73;1.83;;;;;;;24.98;55.26;100701.69;8304575;28;20049;-60
2023/08/09 11:18:40;;;;;;;1.52;1.10;;;;;;;26.51;51.85;100692.75;8308020;28;20054;-60
2023/08/09 11:23:00;;;;;;;2.28;1.13;;;;;;;26.50;52.07;100691.88;8302998;28;20407;-60
2023/08/09 11:27:01;;;;;;;5.32;1.40;;;;;;;26.64;50.20;100698.94;8308798;28;20034;-60
2023/08/09 11:31:01;;;;;;;1.70;1.25;;;;;;;28.33;50.07;100696.41;8308676;28;20037;-60
2023/08/09 11:35:02;;;;;;;2.50;1.70;;;;;;;28.55;48.91;100705.72;8308000;28;20037;-60
2023/08/09 11:39:05;;;;;;;5.75;1.30;;;;;;;28.47;47.14;100700.56;8305856;28;20037;-60
2023/08/09 11:43:09;;;;;;;3.17;1.15;;;;;;;27.54;48.76;100699.31;8306215;28;20033;-60
2023/08/09 11:47:10;;;;;;;1.88;1.20;;;;;;;29.86;48.23;100706.50;8308637;28;20030;-60
2023/08/09 11:51:16;;;;;;;1.45;1.10;;;;;;;31.11;47.94;100708.75;8304065;28;20038;-60
2023/08/09 11:55:16;;;;;;;2.05;1.27;;;;;;;32.65;43.51;100712.38;8304164;28;20036;-61
2023/08/09 11:59:19;;;;;;;2.13;1.05;;;;;;;32.32;42.93;100716.50;8304231;28;20030;-59
2023/08/09 12:03:21;;;;;;;1.52;1.10;;;;;;;32.01;44.16;100714.75;8304820;28;20037;-60
2023/08/09 12:07:21;;;;;;;4.80;1.08;;;;;;;29.02;47.01;100715.38;8274589;28;20030;-59
2023/08/09 12:11:22;;;;;;;3.10;1.00;;;;;;;26.71;50.97;100727.41;8272283;28;20068;-60
2023/08/09 12:15:23;;;;;;;2.80;1.00;;;;;;;26.51;55.38;100715.78;8273872;28;20034;-59
2023/08/09 12:19:24;;;;;;;3.65;1.05;;;;;;;26.07;53.93;100713.50;8271035;28;20042;-60
2023/08/09 12:23:24;;;;;;;4.68;0.80;;;;;;;25.03;52.54;100714.81;8283110;28;20113;-60
2023/08/09 12:27:26;;;;;;;6.18;1.30;;;;;;;24.44;54.28;100711.78;8306621;28;20499;-59
2023/08/09 12:31:27;;;;;;;1.73;0.82;;;;;;;24.55;54.63;100714.63;8301064;28;20033;-59
2023/08/09 12:35:27;;;;;;;2.53;1.13;;;;;;;24.21;55.11;100700.50;8304929;28;20079;-60
2023/08/09 12:39:28;;;;;;;1.88;1.00;;;;;;;24.62;55.99;100717.34;8306173;28;20042;-60
2023/08/09 12:43:28;;;;;;;2.15;0.82;;;;;;;24.15;54.84;100720.72;8307308;28;20041;-59
2023/08/09 12:47:29;;;;;;;4.95;1.15;;;;;;;24.73;56.35;100724.94;8306559;28;20064;-60
2023/08/09 12:51:29;;;;;;;1.63;1.00;;;;;;;24.67;55.43;100731.38;8302539;28;20041;-60
2023/08/09 12:55:30;;;;;;;6.90;1.20;;;;;;;24.78;57.16;100733.41;8307041;28;20052;-60
2023/08/09 12:59:32;;;;;;;2.28;0.98;;;;;;;24.53;55.97;100735.28;8304584;28;20041;-60
2023/08/09 13:03:32;;;;;;;2.83;0.90;;;;;;;24.33;57.28;100743.75;8320042;28;20127;-60
2023/08/09 13:07:33;;;;;;;2.00;0.95;;;;;;;24.18;57.47;100736.88;8312684;28;20041;-59
2023/08/09 13:11:34;;;;;;;6.25;1.17;;;;;;;24.63;58.55;100753.06;8304530;28;20048;-60
2023/08/09 13:15:34;;;;;;;2.13;0.80;;;;;;;24.28;56.22;100734.44;8305019;28;20508;-60
2023/08/09 13:19:36;;;;;;;3.47;1.13;;;;;;;24.27;59.43;100741.03;8305999;28;20136;-59
2023/08/09 13:23:37;;;;;;;4.20;1.02;;;;;;;24.09;57.03;100744.56;8305290;28;20037;-60
2023/08/09 13:27:39;;;;;;;4.82;0.85;;;;;;;23.89;57.55;100732.75;8305432;28;20092;-60
2023/08/09 13:31:39;;;;;;;1.83;0.90;;;;;;;24.17;56.65;100732.38;8304273;28;20037;-60
2023/08/09 13:35:42;;;;;;;2.00;0.77;;;;;;;23.78;56.84;100736.22;8304344;28;20092;-60
2023/08/09 13:39:42;;;;;;;2.72;1.35;;;;;;;23.82;58.08;100742.16;8301448;28;20508;-58
2023/08/09 13:43:43;;;;;;;1.52;0.90;;;;;;;23.92;57.36;100737.00;8304752;28;20412;-59
2023/08/09 13:47:43;;;;;;;1.45;0.70;;;;;;;24.20;58.40;100730.03;8303454;28;20531;-59
2023/08/09 13:51:44;;;;;;;2.35;1.10;;;;;;;24.24;56.91;100727.69;8302407;28;20522;-59
2023/08/09 13:55:45;;;;;;;1.85;0.98;;;;;;;24.24;56.24;100724.91;8305078;28;20494;-60
2023/08/09 13:59:46;;;;;;;8.30;1.15;;;;;;;24.05;56.82;100725.88;8301753;28;20412;-60
2023/08/09 14:03:46;;;;;;;2.15;1.00;;;;;;;24.07;57.32;100730.13;8303639;28;20034;-59
2023/08/09 14:07:47;;;;;;;1.40;0.93;;;;;;;24.50;60.39;100741.28;8276649;28;20049;-61
2023/08/09 14:11:48;;;;;;;2.33;1.00;;;;;;;24.44;57.79;100733.88;8304038;28;20052;-61
2023/08/09 14:15:49;;;;;;;1.90;0.90;;;;;;;24.04;56.47;100719.53;8304508;28;20410;-60
2023/08/09 14:19:50;;;;;;;1.73;1.00;;;;;;;24.61;57.30;100733.09;8303125;28;20097;-59
2023/08/09 14:23:50;;;;;;;5.32;1.08;;;;;;;24.26;57.62;100733.81;8307986;28;20401;-60
2023/08/09 14:27:52;;;;;;;3.92;1.23;;;;;;;24.37;57.08;100730.34;8307106;28;20046;-61
2023/08/09 14:31:52;;;;;;;1.70;1.10;;;;;;;24.18;56.52;100731.34;8305413;28;20519;-61
2023/08/09 14:35:53;;;;;;;3.20;1.20;;;;;;;24.18;58.23;100726.63;8309678;28;20396;-61
2023/08/09 14:39:54;;;;;;;2.05;1.17;;;;;;;23.98;59.50;100736.13;8310261;28;20421;-60
2023/08/09 14:43:55;;;;;;;4.63;1.40;;;;;;;24.11;56.90;100727.75;8310055;28;20128;-61
2023/08/09 14:47:55;;;;;;;3.20;1.40;;;;;;;24.44;58.26;100731.13;8309767;28;20139;-61
2023/08/09 14:51:56;;;;;;;3.70;1.20;;;;;;;24.43;55.51;100741.31;8309336;28;20036;-61
2023/08/09 14:56:00;;;;;;;2.00;1.30;;;;;;;24.46;56.83;100740.03;8311043;28;20116;-61
2023/08/09 15:00:01;;;;;;;;;;;;;;;24.58;58.19;100743.78;8284152;28;20511;-61
2023/08/09 15:04:01;;;;;;;2.88;1.40;;;;;;;24.83;57.53;100753.75;8293636;28;20248;-62
2023/08/09 15:08:02;;;;;;;6.10;1.50;;;;;;;24.64;55.29;100737.34;8310291;28;20097;-62
2023/08/09 15:12:05;;;;;;;4.85;1.38;;;;;;;25.07;61.29;100740.97;8309943;28;20041;-62
2023/08/09 15:16:05;;;;;;;4.22;1.20;;;;;;;24.88;57.17;100750.31;8308991;28;20038;-62
2023/08/09 15:20:07;;;;;;;8.10;1.83;;;;;;;24.82;58.26;100751.22;8308210;28;20050;-62
2023/08/09 15:24:07;;;;;;;3.00;1.55;;;;;;;24.79;58.28;100751.66;8294809;28;20050;-62
2023/08/09 15:28:08;;;;;;;2.15;1.20;;;;;;;24.87;59.49;100755.00;8298524;28;20041;-62
2023/08/09 15:32:09;;;;;;;1.90;0.85;;;;;;;24.78;60.24;100750.00;8308857;28;20175;-62
2023/08/09 15:36:10;;;;;;;3.03;1.20;;;;;;;24.69;59.23;100752.19;8307882;28;20116;-61
2023/08/09 15:40:13;;;;;;;3.70;1.20;;;;;;;24.40;59.63;100740.94;8306983;28;20038;-61
2023/08/09 15:44:16;;;;;;;8.07;1.20;;;;;;;24.67;61.25;100759.03;8290685;28;20049;-60
2023/08/09 15:48:17;;;;;;;4.53;1.50;;;;;;;24.77;58.94;100759.38;8275247;28;20045;-58
2023/08/09 15:52:20;;;;;;;2.70;1.40;;;;;;;24.69;57.66;100745.81;8282220;28;20048;-58
2023/08/09 15:56:20;;;;;;;4.15;1.80;;;;;;;24.62;59.56;100751.41;8248060;28;20125;-60
2023/08/09 16:00:21;;;;;;;4.53;2.13;;;;;;;24.34;59.33;100750.97;8267597;28;20060;-58
2023/08/09 16:04:22;;;;;;;14.45;4.15;;;;;;;24.42;58.25;100745.16;8293681;28;20043;-57
2023/08/09 16:08:24;;;;;;;38.63;9.98;;;;;;;24.54;57.30;100754.44;8275487;28;20038;-59
2023/08/09 16:12:25;;;;;;;6.68;2.15;;;;;;;24.58;56.82;100754.84;8300993;28;20482;-59
2023/08/09 16:16:26;;;;;;;3.92;1.98;;;;;;;24.45;56.67;100750.25;8277962;28;20046;-57
2023/08/09 16:20:26;;;;;;;60.22;24.58;;;;;;;24.43;55.84;100755.13;8284889;28;20053;-58
2023/08/09 16:24:27;;;;;;;31.70;11.80;;;;;;;24.21;57.17;100761.28;8288107;28;20037;-58
2023/08/09 16:28:28;;;;;;;7.97;3.97;;;;;;;24.05;58.47;100759.03;8296817;28;20551;-60
2023/08/09 16:32:29;;;;;;;24.52;10.60;;;;;;;24.15;57.89;100771.28;8299783;28;20043;-58
2023/08/09 16:36:29;;;;;;;13.98;5.28;;;;;;;24.09;57.33;100771.34;8302332;28;20042;-58
2023/08/09 16:40:30;;;;;;;4.00;2.28;;;;;;;23.97;57.22;100768.44;8293815;28;20423;-58
2023/08/09 16:44:30;;;;;;;38.20;14.52;;;;;;;23.83;58.97;100776.97;8299822;28;20041;-59
2023/08/09 16:48:31;;;;;;;55.15;18.35;;;;;;;23.94;59.51;100779.06;8298431;28;20048;-59
2023/08/09 16:52:32;;;;;;;44.95;15.57;;;;;;;24.02;59.31;100778.81;8293148;28;20053;-59
2023/08/09 16:56:33;;;;;;;32.53;10.25;;;;;;;24.15;59.43;100773.22;8293557;28;20069;-59
2023/08/09 17:00:33;;;;;;;21.40;9.55;;;;;;;24.32;58.06;100782.66;8296752;28;20041;-60
2023/08/09 17:04:34;;;;;;;40.83;19.55;;;;;;;24.22;57.84;100782.31;8300965;28;20049;-58
2023/08/09 17:08:34;;;;;;;40.83;15.32;;;;;;;24.01;58.77;100785.41;8271579;28;20097;-59
2023/08/09 17:12:35;;;;;;;14.52;7.57;;;;;;;23.82;59.69;100787.16;8291120;28;20045;-58
2023/08/09 17:16:35;;;;;;;26.10;12.18;;;;;;;23.81;59.94;100781.88;8299996;28;20551;-61
2023/08/09 17:20:36;;;;;;;16.90;7.22;;;;;;;23.82;59.66;100778.06;8292596;28;20132;-62
2023/08/09 17:24:36;;;;;;;13.82;5.10;;;;;;;23.94;57.83;100784.59;8293940;28;20037;-60
2023/08/09 17:28:39;;;;;;;20.15;9.07;;;;;;;23.93;58.93;100777.34;8292823;28;20042;-61
2023/08/09 17:32:39;;;;;;;46.67;21.40;;;;;;;23.75;59.91;100768.97;8297058;28;20046;-60
2023/08/09 17:36:40;;;;;;;39.17;18.55;;;;;;;23.73;60.67;100771.09;8297631;28;20060;-62
2023/08/09 17:40:42;;;;;;;63.20;29.50;;;;;;;23.74;61.54;100772.78;8294712;28;20516;-62
2023/08/09 17:44:43;;;;;;;23.27;11.75;;;;;;;23.71;62.27;100781.50;8296544;28;20049;-62
2023/08/09 17:48:43;;;;;;;30.98;11.18;;;;;;;23.70;61.81;100782.56;8296327;28;20065;-61
2023/08/09 17:52:44;;;;;;;25.20;10.15;;;;;;;23.63;62.68;100788.13;8295701;28;20131;-61
2023/08/09 17:56:44;;;;;;;26.73;9.05;;;;;;;23.46;64.12;100791.59;8300162;28;20092;-62
2023/08/09 18:00:45;;;;;;;9.38;5.07;;;;;;;23.32;64.64;100795.47;8300127;28;20046;-62
2023/08/09 18:04:45;;;;;;;9.77;5.05;;;;;;;23.25;66.23;100808.41;8303392;28;20081;-62
2023/08/09 18:08:45;;;;;;;11.25;5.95;;;;;;;23.21;67.35;100817.09;8305920;28;20563;-59
2023/08/09 18:12:47;;;;;;;6.78;4.30;;;;;;;23.11;68.02;100833.22;8298398;28;20488;-59
2023/08/09 18:16:49;;;;;;;8.73;1.83;;;;;;;22.99;66.80;100829.41;8301006;28;20099;-62
2023/08/09 18:20:49;;;;;;;4.10;1.92;;;;;;;22.90;67.64;100838.97;8303950;28;20518;-62
2023/08/09 18:24:50;;;;;;;9.63;5.85;;;;;;;22.75;69.35;100835.56;8307138;28;20081;-61
2023/08/09 18:28:50;;;;;;;6.90;2.03;;;;;;;22.64;68.90;100833.47;8303933;28;20116;-60
2023/08/09 18:32:51;;;;;;;6.03;1.55;;;;;;;22.28;70.13;100841.22;8301219;28;20038;-61
2023/08/09 18:36:52;;;;;;;2.95;1.58;;;;;;;22.17;69.91;100850.06;8303026;28;20419;-60
2023/08/09 18:40:52;;;;;;;6.30;1.77;;;;;;;22.01;70.59;100855.97;8304985;28;20072;-60